sensor_id;sensor_type;location;lat;lon;timestamp;P1;durP1;ratioP1;P2;durP2;ratioP2
68718;SDS011;55696;52.138;5.444;2022-09-09T00:04:37;2.00;;;0.98;;
68718;SDS011;55696;52.138;5.444;2022-09-09T00:07:20;2.03;;;0.80;;
68718;SDS011;55696;52.138;5.444;2022-09-09T00:10:03;3.00;;;1.20;;
68718;SDS011;55696;52.138;5.444;2022-09-09T00:16:10;2.22;;;1.40;;
68718;SDS011;55696;52.138;5.444;2022-09-09T00:18:55;5.43;;;1.55;;
68718;SDS011;55696;52.138;5.444;2022-09-09T00:21:34;1.63;;;1.07;;
68718;SDS011;55696;52.138;5.444;2022-09-09T00:26:46;2.13;;;1.20;;
68718;SDS011;55696;52.138;5.444;2022-09-09T00:29:23;5.60;;;1.25;;
68718;SDS011;55696;52.138;5.444;2022-09-09T00:32:09;4.43;;;1.40;;
68718;SDS011;55696;52.138;5.444;2022-09-09T00:34:48;4.10;;;1.60;;
68718;SDS011;55696;52.138;5.444;2022-09-09T00:37:20;2.78;;;1.50;;
68718;SDS011;55696;52.138;5.444;2022-09-09T00:39:51;4.80;;;1.80;;
68718;SDS011;55696;52.138;5.444;2022-09-09T00:42:26;4.70;;;1.92;;
68718;SDS011;55696;52.138;5.444;2022-09-09T00:45:19;4.57;;;2.25;;
68718;SDS011;55696;52.138;5.444;2022-09-09T00:48:14;3.87;;;2.00;;
68718;SDS011;55696;52.138;5.444;2022-09-09T00:50:45;2.92;;;1.60;;
68718;SDS011;55696;52.138;5.444;2022-09-09T00:56:53;4.60;;;2.03;;
68718;SDS011;55696;52.138;5.444;2022-09-09T00:59:30;5.00;;;2.38;;
68718;SDS011;55696;52.138;5.444;2022-09-09T01:02:09;4.40;;;2.10;;
68718;SDS011;55696;52.138;5.444;2022-09-09T01:04:44;3.72;;;2.15;;
68718;SDS011;55696;52.138;5.444;2022-09-09T01:07:15;4.03;;;1.90;;
68718;SDS011;55696;52.138;5.444;2022-09-09T01:09:57;5.32;;;2.38;;
68718;SDS011;55696;52.138;5.444;2022-09-09T01:12:27;4.43;;;2.00;;
68718;SDS011;55696;52.138;5.444;2022-09-09T01:15:03;7.63;;;2.00;;
68718;SDS011;55696;52.138;5.444;2022-09-09T01:17:52;4.35;;;2.10;;
68718;SDS011;55696;52.138;5.444;2022-09-09T01:20:44;5.90;;;2.15;;
68718;SDS011;55696;52.138;5.444;2022-09-09T01:28:57;7.17;;;2.20;;
68718;SDS011;55696;52.138;5.444;2022-09-09T01:31:41;6.97;;;2.58;;
68718;SDS011;55696;52.138;5.444;2022-09-09T01:34:18;5.13;;;2.42;;
68718;SDS011;55696;52.138;5.444;2022-09-09T01:39:33;4.70;;;2.50;;
68718;SDS011;55696;52.138;5.444;2022-09-09T01:42:07;4.83;;;2.60;;
68718;SDS011;55696;52.138;5.444;2022-09-09T01:44:36;5.38;;;2.60;;
68718;SDS011;55696;52.138;5.444;2022-09-09T01:47:04;7.32;;;2.97;;
68718;SDS011;55696;52.138;5.444;2022-09-09T01:49:33;8.20;;;3.17;;
68718;SDS011;55696;52.138;5.444;2022-09-09T01:52:08;10.02;;;3.00;;
68718;SDS011;55696;52.138;5.444;2022-09-09T01:54:36;5.97;;;2.70;;
68718;SDS011;55696;52.138;5.444;2022-09-09T02:02:19;6.22;;;2.80;;
68718;SDS011;55696;52.138;5.444;2022-09-09T02:08:21;6.33;;;3.23;;
68718;SDS011;55696;52.138;5.444;2022-09-09T02:14:00;6.38;;;3.00;;
68718;SDS011;55696;52.138;5.444;2022-09-09T02:16:35;5.28;;;2.80;;
68718;SDS011;55696;52.138;5.444;2022-09-09T02:19:13;5.38;;;2.70;;
68718;SDS011;55696;52.138;5.444;2022-09-09T02:21:59;8.27;;;3.07;;
68718;SDS011;55696;52.138;5.444;2022-09-09T02:24:29;4.53;;;2.97;;
68718;SDS011;55696;52.138;5.444;2022-09-09T02:27:09;6.65;;;3.33;;
68718;SDS011;55696;52.138;5.444;2022-09-09T02:29:38;8.20;;;3.53;;
68718;SDS011;55696;52.138;5.444;2022-09-09T02:32:15;6.78;;;3.05;;
68718;SDS011;55696;52.138;5.444;2022-09-09T02:34:58;8.83;;;2.97;;
68718;SDS011;55696;52.138;5.444;2022-09-09T02:37:32;11.05;;;3.03;;
68718;SDS011;55696;52.138;5.444;2022-09-09T02:40:05;6.90;;;3.28;;
68718;SDS011;55696;52.138;5.444;2022-09-09T02:42:45;6.05;;;3.35;;
68718;SDS011;55696;52.138;5.444;2022-09-09T02:45:14;5.75;;;3.25;;
68718;SDS011;55696;52.138;5.444;2022-09-09T02:47:50;5.97;;;3.03;;
68718;SDS011;55696;52.138;5.444;2022-09-09T02:50:47;9.00;;;3.00;;
68718;SDS011;55696;52.138;5.444;2022-09-09T02:53:31;6.55;;;3.13;;
68718;SDS011;55696;52.138;5.444;2022-09-09T02:56:29;6.50;;;3.17;;
68718;SDS011;55696;52.138;5.444;2022-09-09T02:59:02;6.78;;;2.97;;
68718;SDS011;55696;52.138;5.444;2022-09-09T03:01:31;6.53;;;3.73;;
68718;SDS011;55696;52.138;5.444;2022-09-09T03:03:58;8.07;;;3.20;;
68718;SDS011;55696;52.138;5.444;2022-09-09T03:06:25;5.78;;;3.25;;
68718;SDS011;55696;52.138;5.444;2022-09-09T03:09:01;5.90;;;3.67;;
68718;SDS011;55696;52.138;5.444;2022-09-09T03:11:29;6.60;;;3.05;;
68718;SDS011;55696;52.138;5.444;2022-09-09T03:13:56;8.13;;;3.87;;
68718;SDS011;55696;52.138;5.444;2022-09-09T03:16:25;6.53;;;3.70;;
68718;SDS011;55696;52.138;5.444;2022-09-09T03:18:53;6.78;;;3.67;;
68718;SDS011;55696;52.138;5.444;2022-09-09T03:21:20;5.30;;;3.65;;
68718;SDS011;55696;52.138;5.444;2022-09-09T03:23:47;5.80;;;3.60;;
68718;SDS011;55696;52.138;5.444;2022-09-09T03:26:14;6.17;;;3.50;;
68718;SDS011;55696;52.138;5.444;2022-09-09T03:28:44;6.55;;;4.00;;
68718;SDS011;55696;52.138;5.444;2022-09-09T03:31:14;6.93;;;4.03;;
68718;SDS011;55696;52.138;5.444;2022-09-09T03:33:41;6.65;;;3.90;;
68718;SDS011;55696;52.138;5.444;2022-09-09T03:36:11;6.53;;;3.58;;
68718;SDS011;55696;52.138;5.444;2022-09-09T03:38:38;8.47;;;3.80;;
68718;SDS011;55696;52.138;5.444;2022-09-09T03:41:06;7.80;;;3.63;;
68718;SDS011;55696;52.138;5.444;2022-09-09T03:43:34;7.10;;;3.78;;
68718;SDS011;55696;52.138;5.444;2022-09-09T03:46:01;14.10;;;3.72;;
68718;SDS011;55696;52.138;5.444;2022-09-09T03:48:28;6.35;;;3.47;;
68718;SDS011;55696;52.138;5.444;2022-09-09T03:50:57;10.70;;;3.93;;
68718;SDS011;55696;52.138;5.444;2022-09-09T03:53:27;6.78;;;3.97;;
68718;SDS011;55696;52.138;5.444;2022-09-09T03:55:55;8.45;;;3.88;;
68718;SDS011;55696;52.138;5.444;2022-09-09T03:58:26;9.02;;;4.18;;
68718;SDS011;55696;52.138;5.444;2022-09-09T04:01:02;7.88;;;3.97;;
68718;SDS011;55696;52.138;5.444;2022-09-09T04:03:31;9.73;;;4.23;;
68718;SDS011;55696;52.138;5.444;2022-09-09T04:05:58;6.15;;;3.38;;
68718;SDS011;55696;52.138;5.444;2022-09-09T04:08:28;8.00;;;3.55;;
68718;SDS011;55696;52.138;5.444;2022-09-09T04:10:58;9.15;;;3.78;;
68718;SDS011;55696;52.138;5.444;2022-09-09T04:13:28;10.02;;;3.97;;
68718;SDS011;55696;52.138;5.444;2022-09-09T04:15:57;11.40;;;4.20;;
68718;SDS011;55696;52.138;5.444;2022-09-09T04:18:25;7.88;;;3.97;;
68718;SDS011;55696;52.138;5.444;2022-09-09T04:20:54;6.25;;;4.03;;
68718;SDS011;55696;52.138;5.444;2022-09-09T04:23:26;6.80;;;3.70;;
68718;SDS011;55696;52.138;5.444;2022-09-09T04:25:57;9.95;;;4.30;;
68718;SDS011;55696;52.138;5.444;2022-09-09T04:28:27;6.43;;;3.40;;
68718;SDS011;55696;52.138;5.444;2022-09-09T04:31:09;7.60;;;3.72;;
68718;SDS011;55696;52.138;5.444;2022-09-09T04:33:40;7.07;;;3.53;;
68718;SDS011;55696;52.138;5.444;2022-09-09T04:36:08;14.45;;;4.70;;
68718;SDS011;55696;52.138;5.444;2022-09-09T04:38:36;8.38;;;4.28;;
68718;SDS011;55696;52.138;5.444;2022-09-09T04:41:03;9.00;;;4.03;;
68718;SDS011;55696;52.138;5.444;2022-09-09T04:43:32;10.48;;;4.07;;
68718;SDS011;55696;52.138;5.444;2022-09-09T04:46:02;6.63;;;4.22;;
68718;SDS011;55696;52.138;5.444;2022-09-09T04:48:29;9.00;;;3.92;;
68718;SDS011;55696;52.138;5.444;2022-09-09T04:50:59;12.05;;;3.83;;
68718;SDS011;55696;52.138;5.444;2022-09-09T04:53:32;9.60;;;3.70;;
68718;SDS011;55696;52.138;5.444;2022-09-09T04:56:01;7.90;;;3.50;;
68718;SDS011;55696;52.138;5.444;2022-09-09T04:58:35;5.03;;;2.72;;
68718;SDS011;55696;52.138;5.444;2022-09-09T05:01:05;7.43;;;3.40;;
68718;SDS011;55696;52.138;5.444;2022-09-09T05:03:38;6.25;;;3.28;;
68718;SDS011;55696;52.138;5.444;2022-09-09T05:06:08;6.17;;;3.23;;
68718;SDS011;55696;52.138;5.444;2022-09-09T05:08:37;5.28;;;3.10;;
68718;SDS011;55696;52.138;5.444;2022-09-09T05:11:21;8.45;;;3.88;;
68718;SDS011;55696;52.138;5.444;2022-09-09T05:13:52;12.55;;;3.35;;
68718;SDS011;55696;52.138;5.444;2022-09-09T05:16:20;6.78;;;3.30;;
68718;SDS011;55696;52.138;5.444;2022-09-09T05:18:47;8.37;;;3.00;;
68718;SDS011;55696;52.138;5.444;2022-09-09T05:21:18;10.32;;;3.30;;
68718;SDS011;55696;52.138;5.444;2022-09-09T05:23:45;7.95;;;3.45;;
68718;SDS011;55696;52.138;5.444;2022-09-09T05:26:13;7.68;;;3.00;;
68718;SDS011;55696;52.138;5.444;2022-09-09T05:28:45;9.45;;;3.13;;
68718;SDS011;55696;52.138;5.444;2022-09-09T05:31:13;7.27;;;3.47;;
68718;SDS011;55696;52.138;5.444;2022-09-09T05:33:43;10.02;;;3.08;;
68718;SDS011;55696;52.138;5.444;2022-09-09T05:36:13;9.82;;;3.65;;
68718;SDS011;55696;52.138;5.444;2022-09-09T05:38:43;9.65;;;3.83;;
68718;SDS011;55696;52.138;5.444;2022-09-09T05:41:12;8.73;;;3.58;;
68718;SDS011;55696;52.138;5.444;2022-09-09T05:43:42;8.57;;;2.97;;
68718;SDS011;55696;52.138;5.444;2022-09-09T05:46:17;9.57;;;4.18;;
68718;SDS011;55696;52.138;5.444;2022-09-09T05:48:47;8.68;;;3.80;;
68718;SDS011;55696;52.138;5.444;2022-09-09T05:51:20;6.22;;;3.42;;
68718;SDS011;55696;52.138;5.444;2022-09-09T05:53:50;8.00;;;3.30;;
68718;SDS011;55696;52.138;5.444;2022-09-09T05:56:22;7.77;;;2.80;;
68718;SDS011;55696;52.138;5.444;2022-09-09T05:58:55;7.10;;;3.13;;
68718;SDS011;55696;52.138;5.444;2022-09-09T06:01:24;8.70;;;3.30;;
68718;SDS011;55696;52.138;5.444;2022-09-09T06:03:53;7.82;;;2.70;;
68718;SDS011;55696;52.138;5.444;2022-09-09T06:06:22;8.73;;;2.60;;
68718;SDS011;55696;52.138;5.444;2022-09-09T06:08:54;9.47;;;3.33;;
68718;SDS011;55696;52.138;5.444;2022-09-09T06:11:28;8.20;;;3.28;;
68718;SDS011;55696;52.138;5.444;2022-09-09T06:13:59;11.18;;;3.22;;
68718;SDS011;55696;52.138;5.444;2022-09-09T06:16:29;9.45;;;3.47;;
68718;SDS011;55696;52.138;5.444;2022-09-09T06:18:58;5.82;;;3.00;;
68718;SDS011;55696;52.138;5.444;2022-09-09T06:21:34;7.83;;;3.50;;
68718;SDS011;55696;52.138;5.444;2022-09-09T06:24:05;10.82;;;3.83;;
68718;SDS011;55696;52.138;5.444;2022-09-09T06:26:34;12.55;;;3.60;;
68718;SDS011;55696;52.138;5.444;2022-09-09T06:29:03;7.32;;;3.00;;
68718;SDS011;55696;52.138;5.444;2022-09-09T06:31:31;7.18;;;2.85;;
68718;SDS011;55696;52.138;5.444;2022-09-09T06:34:06;8.17;;;2.97;;
68718;SDS011;55696;52.138;5.444;2022-09-09T06:36:38;10.13;;;3.17;;
68718;SDS011;55696;52.138;5.444;2022-09-09T06:39:06;9.98;;;2.90;;
68718;SDS011;55696;52.138;5.444;2022-09-09T06:41:40;13.35;;;3.15;;
68718;SDS011;55696;52.138;5.444;2022-09-09T06:44:20;9.55;;;2.63;;
68718;SDS011;55696;52.138;5.444;2022-09-09T06:46:48;9.73;;;2.70;;
68718;SDS011;55696;52.138;5.444;2022-09-09T06:49:16;11.38;;;2.92;;
68718;SDS011;55696;52.138;5.444;2022-09-09T06:51:43;8.30;;;2.55;;
68718;SDS011;55696;52.138;5.444;2022-09-09T06:54:12;5.00;;;2.30;;
68718;SDS011;55696;52.138;5.444;2022-09-09T06:56:42;9.00;;;2.50;;
68718;SDS011;55696;52.138;5.444;2022-09-09T06:59:16;7.50;;;2.73;;
68718;SDS011;55696;52.138;5.444;2022-09-09T07:01:44;4.57;;;2.40;;
68718;SDS011;55696;52.138;5.444;2022-09-09T07:04:12;14.20;;;2.95;;
68718;SDS011;55696;52.138;5.444;2022-09-09T07:06:43;8.15;;;2.35;;
68718;SDS011;55696;52.138;5.444;2022-09-09T07:09:16;8.38;;;2.33;;
68718;SDS011;55696;52.138;5.444;2022-09-09T07:11:48;12.27;;;2.50;;
68718;SDS011;55696;52.138;5.444;2022-09-09T07:14:18;12.15;;;2.72;;
68718;SDS011;55696;52.138;5.444;2022-09-09T07:16:48;11.88;;;2.67;;
68718;SDS011;55696;52.138;5.444;2022-09-09T07:19:16;7.25;;;2.63;;
68718;SDS011;55696;52.138;5.444;2022-09-09T07:21:46;7.80;;;2.60;;
68718;SDS011;55696;52.138;5.444;2022-09-09T07:24:17;7.90;;;2.57;;
68718;SDS011;55696;52.138;5.444;2022-09-09T07:26:45;9.75;;;2.70;;
68718;SDS011;55696;52.138;5.444;2022-09-09T07:29:12;9.18;;;2.17;;
68718;SDS011;55696;52.138;5.444;2022-09-09T07:31:46;8.30;;;2.42;;
68718;SDS011;55696;52.138;5.444;2022-09-09T07:34:19;13.05;;;2.50;;
68718;SDS011;55696;52.138;5.444;2022-09-09T07:36:46;7.17;;;2.10;;
68718;SDS011;55696;52.138;5.444;2022-09-09T07:39:13;9.85;;;2.65;;
68718;SDS011;55696;52.138;5.444;2022-09-09T07:41:46;11.35;;;2.60;;
68718;SDS011;55696;52.138;5.444;2022-09-09T07:44:21;9.60;;;2.22;;
68718;SDS011;55696;52.138;5.444;2022-09-09T07:46:57;12.10;;;2.50;;
68718;SDS011;55696;52.138;5.444;2022-09-09T07:49:30;7.50;;;2.67;;
68718;SDS011;55696;52.138;5.444;2022-09-09T07:52:00;8.70;;;2.70;;
68718;SDS011;55696;52.138;5.444;2022-09-09T07:54:27;8.18;;;2.60;;
68718;SDS011;55696;52.138;5.444;2022-09-09T07:56:54;7.45;;;2.45;;
68718;SDS011;55696;52.138;5.444;2022-09-09T07:59:24;6.43;;;2.05;;
68718;SDS011;55696;52.138;5.444;2022-09-09T08:01:52;4.07;;;1.70;;
68718;SDS011;55696;52.138;5.444;2022-09-09T08:04:23;9.52;;;2.42;;
68718;SDS011;55696;52.138;5.444;2022-09-09T08:06:56;9.60;;;2.15;;
68718;SDS011;55696;52.138;5.444;2022-09-09T08:09:27;9.52;;;2.75;;
68718;SDS011;55696;52.138;5.444;2022-09-09T08:12:05;13.30;;;2.42;;
68718;SDS011;55696;52.138;5.444;2022-09-09T08:14:33;8.87;;;2.83;;
68718;SDS011;55696;52.138;5.444;2022-09-09T08:17:00;7.25;;;2.60;;
68718;SDS011;55696;52.138;5.444;2022-09-09T08:19:28;9.25;;;2.65;;
68718;SDS011;55696;52.138;5.444;2022-09-09T08:22:00;8.43;;;2.28;;
68718;SDS011;55696;52.138;5.444;2022-09-09T08:24:29;8.48;;;2.13;;
68718;SDS011;55696;52.138;5.444;2022-09-09T08:26:55;9.80;;;1.90;;
68718;SDS011;55696;52.138;5.444;2022-09-09T08:29:23;8.80;;;2.10;;
68718;SDS011;55696;52.138;5.444;2022-09-09T08:31:52;9.88;;;2.22;;
68718;SDS011;55696;52.138;5.444;2022-09-09T08:34:21;9.00;;;2.50;;
68718;SDS011;55696;52.138;5.444;2022-09-09T08:36:50;10.40;;;2.00;;
68718;SDS011;55696;52.138;5.444;2022-09-09T08:39:20;8.80;;;2.27;;
68718;SDS011;55696;52.138;5.444;2022-09-09T08:50:19;9.35;;;1.90;;
68718;SDS011;55696;52.138;5.444;2022-09-09T08:58:51;14.75;;;2.20;;
68718;SDS011;55696;52.138;5.444;2022-09-09T09:01:44;6.95;;;2.22;;
68718;SDS011;55696;52.138;5.444;2022-09-09T09:10:21;6.65;;;2.00;;
68718;SDS011;55696;52.138;5.444;2022-09-09T09:16:17;11.07;;;1.75;;
68718;SDS011;55696;52.138;5.444;2022-09-09T09:18:53;8.57;;;2.30;;
68718;SDS011;55696;52.138;5.444;2022-09-09T09:23:58;10.35;;;2.67;;
68718;SDS011;55696;52.138;5.444;2022-09-09T09:26:33;9.55;;;2.20;;
68718;SDS011;55696;52.138;5.444;2022-09-09T09:29:11;8.68;;;2.17;;
68718;SDS011;55696;52.138;5.444;2022-09-09T09:31:47;11.07;;;2.53;;
68718;SDS011;55696;52.138;5.444;2022-09-09T09:34:18;9.77;;;2.40;;
68718;SDS011;55696;52.138;5.444;2022-09-09T09:36:52;6.57;;;2.05;;
68718;SDS011;55696;52.138;5.444;2022-09-09T09:39:32;7.82;;;2.17;;
68718;SDS011;55696;52.138;5.444;2022-09-09T09:42:24;7.40;;;2.25;;
68718;SDS011;55696;52.138;5.444;2022-09-09T09:44:54;9.98;;;2.10;;
68718;SDS011;55696;52.138;5.444;2022-09-09T09:47:22;6.83;;;2.37;;
68718;SDS011;55696;52.138;5.444;2022-09-09T09:50:18;12.43;;;2.08;;
68718;SDS011;55696;52.138;5.444;2022-09-09T09:55:58;7.15;;;2.05;;
68718;SDS011;55696;52.138;5.444;2022-09-09T09:58:25;9.77;;;2.38;;
68718;SDS011;55696;52.138;5.444;2022-09-09T10:00:56;8.67;;;1.90;;
68718;SDS011;55696;52.138;5.444;2022-09-09T10:03:35;10.95;;;2.08;;
68718;SDS011;55696;52.138;5.444;2022-09-09T10:06:04;6.85;;;1.70;;
68718;SDS011;55696;52.138;5.444;2022-09-09T10:08:33;8.50;;;2.20;;
68718;SDS011;55696;52.138;5.444;2022-09-09T10:11:13;8.93;;;2.15;;
68718;SDS011;55696;52.138;5.444;2022-09-09T10:19:01;7.93;;;2.08;;
68718;SDS011;55696;52.138;5.444;2022-09-09T10:21:56;8.00;;;2.25;;
68718;SDS011;55696;52.138;5.444;2022-09-09T10:30:09;9.40;;;2.63;;
68718;SDS011;55696;52.138;5.444;2022-09-09T10:35:33;5.03;;;1.85;;
68718;SDS011;55696;52.138;5.444;2022-09-09T10:51:33;8.15;;;2.58;;
68718;SDS011;55696;52.138;5.444;2022-09-09T10:54:21;7.03;;;2.33;;
68718;SDS011;55696;52.138;5.444;2022-09-09T10:56:54;5.95;;;1.83;;
68718;SDS011;55696;52.138;5.444;2022-09-09T10:59:27;5.35;;;2.22;;
68718;SDS011;55696;52.138;5.444;2022-09-09T11:02:02;9.60;;;2.47;;
68718;SDS011;55696;52.138;5.444;2022-09-09T11:04:40;8.30;;;2.13;;
68718;SDS011;55696;52.138;5.444;2022-09-09T11:07:12;7.73;;;2.20;;
68718;SDS011;55696;52.138;5.444;2022-09-09T11:09:45;7.97;;;2.20;;
68718;SDS011;55696;52.138;5.444;2022-09-09T11:12:17;8.27;;;2.80;;
68718;SDS011;55696;52.138;5.444;2022-09-09T11:14:57;8.13;;;2.67;;
68718;SDS011;55696;52.138;5.444;2022-09-09T11:17:33;7.85;;;2.58;;
68718;SDS011;55696;52.138;5.444;2022-09-09T11:20:10;8.57;;;2.17;;
68718;SDS011;55696;52.138;5.444;2022-09-09T11:22:48;5.18;;;2.42;;
68718;SDS011;55696;52.138;5.444;2022-09-09T11:28:18;4.95;;;2.17;;
68718;SDS011;55696;52.138;5.444;2022-09-09T11:42:23;7.82;;;1.83;;
68718;SDS011;55696;52.138;5.444;2022-09-09T11:44:51;10.38;;;2.83;;
68718;SDS011;55696;52.138;5.444;2022-09-09T11:47:25;5.60;;;2.23;;
68718;SDS011;55696;52.138;5.444;2022-09-09T11:50:07;7.75;;;2.20;;
68718;SDS011;55696;52.138;5.444;2022-09-09T11:56:02;8.07;;;1.90;;
68718;SDS011;55696;52.138;5.444;2022-09-09T11:58:34;7.70;;;1.98;;
68718;SDS011;55696;52.138;5.444;2022-09-09T12:01:14;7.00;;;2.10;;
68718;SDS011;55696;52.138;5.444;2022-09-09T12:03:54;6.30;;;2.10;;
68718;SDS011;55696;52.138;5.444;2022-09-09T12:06:33;6.82;;;2.08;;
68718;SDS011;55696;52.138;5.444;2022-09-09T12:11:41;6.97;;;2.08;;
68718;SDS011;55696;52.138;5.444;2022-09-09T12:14:18;9.23;;;2.73;;
68718;SDS011;55696;52.138;5.444;2022-09-09T12:17:08;4.93;;;1.98;;
68718;SDS011;55696;52.138;5.444;2022-09-09T12:19:42;4.72;;;2.22;;
68718;SDS011;55696;52.138;5.444;2022-09-09T12:27:59;7.03;;;2.30;;
68718;SDS011;55696;52.138;5.444;2022-09-09T12:30:29;5.18;;;2.33;;
68718;SDS011;55696;52.138;5.444;2022-09-09T12:33:11;5.57;;;1.90;;
68718;SDS011;55696;52.138;5.444;2022-09-09T12:35:39;8.43;;;2.38;;
68718;SDS011;55696;52.138;5.444;2022-09-09T12:38:11;8.40;;;3.00;;
68718;SDS011;55696;52.138;5.444;2022-09-09T12:40:53;7.73;;;2.17;;
68718;SDS011;55696;52.138;5.444;2022-09-09T12:43:22;4.85;;;2.17;;
68718;SDS011;55696;52.138;5.444;2022-09-09T12:45:51;7.65;;;2.38;;
68718;SDS011;55696;52.138;5.444;2022-09-09T12:48:34;7.63;;;2.03;;
68718;SDS011;55696;52.138;5.444;2022-09-09T12:51:05;6.63;;;2.35;;
68718;SDS011;55696;52.138;5.444;2022-09-09T12:53:42;6.00;;;2.13;;
68718;SDS011;55696;52.138;5.444;2022-09-09T12:56:21;8.75;;;3.25;;
68718;SDS011;55696;52.138;5.444;2022-09-09T12:58:53;11.57;;;2.80;;
68718;SDS011;55696;52.138;5.444;2022-09-09T13:01:22;8.05;;;2.72;;
68718;SDS011;55696;52.138;5.444;2022-09-09T13:03:55;5.53;;;2.17;;
68718;SDS011;55696;52.138;5.444;2022-09-09T13:06:26;9.90;;;2.80;;
68718;SDS011;55696;52.138;5.444;2022-09-09T13:08:58;5.88;;;2.50;;
68718;SDS011;55696;52.138;5.444;2022-09-09T13:11:30;10.43;;;2.47;;
68718;SDS011;55696;52.138;5.444;2022-09-09T13:14:15;6.80;;;2.28;;
68718;SDS011;55696;52.138;5.444;2022-09-09T13:19:46;5.87;;;2.30;;
68718;SDS011;55696;52.138;5.444;2022-09-09T13:22:30;8.48;;;2.78;;
68718;SDS011;55696;52.138;5.444;2022-09-09T13:25:01;6.13;;;1.92;;
68718;SDS011;55696;52.138;5.444;2022-09-09T13:27:34;4.95;;;1.70;;
68718;SDS011;55696;52.138;5.444;2022-09-09T13:35:35;8.05;;;2.45;;
68718;SDS011;55696;52.138;5.444;2022-09-09T13:38:16;6.43;;;2.45;;
68718;SDS011;55696;52.138;5.444;2022-09-09T13:40:57;6.32;;;2.13;;
68718;SDS011;55696;52.138;5.444;2022-09-09T13:43:34;8.73;;;3.03;;
68718;SDS011;55696;52.138;5.444;2022-09-09T13:46:04;7.93;;;2.40;;
68718;SDS011;55696;52.138;5.444;2022-09-09T13:49:24;8.15;;;2.75;;
68718;SDS011;55696;52.138;5.444;2022-09-09T13:51:48;9.50;;;2.45;;
68718;SDS011;55696;52.138;5.444;2022-09-09T13:54:17;7.03;;;2.50;;
68718;SDS011;55696;52.138;5.444;2022-09-09T13:56:45;6.57;;;2.35;;
68718;SDS011;55696;52.138;5.444;2022-09-09T13:59:16;6.20;;;2.27;;
68718;SDS011;55696;52.138;5.444;2022-09-09T14:01:46;6.28;;;2.88;;
68718;SDS011;55696;52.138;5.444;2022-09-09T14:04:13;9.35;;;2.90;;
68718;SDS011;55696;52.138;5.444;2022-09-09T14:06:40;6.93;;;2.30;;
68718;SDS011;55696;52.138;5.444;2022-09-09T14:09:09;8.90;;;2.67;;
68718;SDS011;55696;52.138;5.444;2022-09-09T14:11:38;10.07;;;2.67;;
68718;SDS011;55696;52.138;5.444;2022-09-09T14:14:06;7.03;;;2.63;;
68718;SDS011;55696;52.138;5.444;2022-09-09T14:16:33;7.93;;;2.35;;
68718;SDS011;55696;52.138;5.444;2022-09-09T14:19:00;7.55;;;2.45;;
68718;SDS011;55696;52.138;5.444;2022-09-09T14:21:27;6.72;;;2.60;;
68718;SDS011;55696;52.138;5.444;2022-09-09T14:23:54;6.93;;;2.30;;
68718;SDS011;55696;52.138;5.444;2022-09-09T14:26:21;5.50;;;2.22;;
68718;SDS011;55696;52.138;5.444;2022-09-09T14:28:48;6.05;;;2.20;;
68718;SDS011;55696;52.138;5.444;2022-09-09T14:31:23;8.82;;;2.70;;
68718;SDS011;55696;52.138;5.444;2022-09-09T14:33:51;8.82;;;2.67;;
68718;SDS011;55696;52.138;5.444;2022-09-09T14:36:18;6.93;;;2.30;;
68718;SDS011;55696;52.138;5.444;2022-09-09T14:38:45;7.45;;;2.65;;
68718;SDS011;55696;52.138;5.444;2022-09-09T14:41:13;6.53;;;3.33;;
68718;SDS011;55696;52.138;5.444;2022-09-09T14:43:45;12.88;;;3.38;;
68718;SDS011;55696;52.138;5.444;2022-09-09T14:46:14;6.95;;;2.60;;
68718;SDS011;55696;52.138;5.444;2022-09-09T14:48:42;5.93;;;2.60;;
68718;SDS011;55696;52.138;5.444;2022-09-09T14:51:16;5.22;;;2.72;;
68718;SDS011;55696;52.138;5.444;2022-09-09T14:53:43;12.57;;;2.80;;
68718;SDS011;55696;52.138;5.444;2022-09-09T14:56:15;6.72;;;2.80;;
68718;SDS011;55696;52.138;5.444;2022-09-09T14:58:43;4.82;;;2.33;;
68718;SDS011;55696;52.138;5.444;2022-09-09T15:01:12;6.83;;;2.60;;
68718;SDS011;55696;52.138;5.444;2022-09-09T15:03:40;10.57;;;3.08;;
68718;SDS011;55696;52.138;5.444;2022-09-09T15:06:09;7.25;;;2.53;;
68718;SDS011;55696;52.138;5.444;2022-09-09T15:08:38;8.95;;;2.60;;
68718;SDS011;55696;52.138;5.444;2022-09-09T15:11:08;5.88;;;2.83;;
68718;SDS011;55696;52.138;5.444;2022-09-09T15:13:39;7.17;;;2.60;;
68718;SDS011;55696;52.138;5.444;2022-09-09T15:16:08;7.85;;;2.42;;
68718;SDS011;55696;52.138;5.444;2022-09-09T15:18:42;6.40;;;2.50;;
68718;SDS011;55696;52.138;5.444;2022-09-09T15:21:15;3.47;;;1.90;;
68718;SDS011;55696;52.138;5.444;2022-09-09T15:23:45;8.23;;;1.90;;
68718;SDS011;55696;52.138;5.444;2022-09-09T15:26:13;4.03;;;1.52;;
68718;SDS011;55696;52.138;5.444;2022-09-09T15:28:41;3.70;;;1.50;;
68718;SDS011;55696;52.138;5.444;2022-09-09T15:33:40;3.03;;;1.08;;
68718;SDS011;55696;52.138;5.444;2022-09-09T15:38:41;5.05;;;1.42;;
68718;SDS011;55696;52.138;5.444;2022-09-09T15:41:08;3.83;;;1.40;;
68718;SDS011;55696;52.138;5.444;2022-09-09T15:43:34;6.85;;;1.60;;
68718;SDS011;55696;52.138;5.444;2022-09-09T15:46:24;3.75;;;1.35;;
68718;SDS011;55696;52.138;5.444;2022-09-09T15:49:17;2.50;;;1.17;;
68718;SDS011;55696;52.138;5.444;2022-09-09T15:51:47;5.40;;;1.40;;
68718;SDS011;55696;52.138;5.444;2022-09-09T15:54:18;4.32;;;1.52;;
68718;SDS011;55696;52.138;5.444;2022-09-09T15:56:49;2.45;;;1.30;;
68718;SDS011;55696;52.138;5.444;2022-09-09T15:59:18;4.40;;;1.70;;
68718;SDS011;55696;52.138;5.444;2022-09-09T16:01:44;4.45;;;1.40;;
68718;SDS011;55696;52.138;5.444;2022-09-09T16:04:11;3.10;;;1.50;;
68718;SDS011;55696;52.138;5.444;2022-09-09T16:06:39;4.20;;;1.30;;
68718;SDS011;55696;52.138;5.444;2022-09-09T16:09:06;3.05;;;1.50;;
68718;SDS011;55696;52.138;5.444;2022-09-09T16:11:35;3.80;;;1.40;;
68718;SDS011;55696;52.138;5.444;2022-09-09T16:14:03;3.70;;;1.40;;
68718;SDS011;55696;52.138;5.444;2022-09-09T16:16:33;4.43;;;1.67;;
68718;SDS011;55696;52.138;5.444;2022-09-09T16:19:19;5.90;;;1.40;;
68718;SDS011;55696;52.138;5.444;2022-09-09T16:21:47;6.82;;;1.40;;
68718;SDS011;55696;52.138;5.444;2022-09-09T16:24:16;4.90;;;1.63;;
68718;SDS011;55696;52.138;5.444;2022-09-09T16:26:46;5.63;;;1.13;;
68718;SDS011;55696;52.138;5.444;2022-09-09T16:29:15;5.32;;;1.13;;
68718;SDS011;55696;52.138;5.444;2022-09-09T16:31:43;2.40;;;1.10;;
68718;SDS011;55696;52.138;5.444;2022-09-09T16:34:12;4.13;;;1.65;;
68718;SDS011;55696;52.138;5.444;2022-09-09T16:36:41;5.50;;;2.00;;
68718;SDS011;55696;52.138;5.444;2022-09-09T16:39:13;4.10;;;1.65;;
68718;SDS011;55696;52.138;5.444;2022-09-09T16:41:42;3.50;;;1.60;;
68718;SDS011;55696;52.138;5.444;2022-09-09T16:44:11;2.60;;;1.30;;
68718;SDS011;55696;52.138;5.444;2022-09-09T16:46:40;2.65;;;1.38;;
68718;SDS011;55696;52.138;5.444;2022-09-09T16:49:12;5.93;;;1.58;;
68718;SDS011;55696;52.138;5.444;2022-09-09T16:51:40;3.17;;;1.48;;
68718;SDS011;55696;52.138;5.444;2022-09-09T16:54:10;3.33;;;1.40;;
68718;SDS011;55696;52.138;5.444;2022-09-09T16:56:38;7.00;;;1.90;;
68718;SDS011;55696;52.138;5.444;2022-09-09T16:59:14;6.43;;;2.10;;
68718;SDS011;55696;52.138;5.444;2022-09-09T17:01:42;8.05;;;2.70;;
68718;SDS011;55696;52.138;5.444;2022-09-09T17:04:14;9.20;;;2.88;;
68718;SDS011;55696;52.138;5.444;2022-09-09T17:06:47;5.05;;;2.75;;
68718;SDS011;55696;52.138;5.444;2022-09-09T17:09:15;4.13;;;2.00;;
68718;SDS011;55696;52.138;5.444;2022-09-09T17:11:42;6.45;;;1.70;;
68718;SDS011;55696;52.138;5.444;2022-09-09T17:14:13;4.93;;;1.90;;
68718;SDS011;55696;52.138;5.444;2022-09-09T17:16:42;5.43;;;2.28;;
68718;SDS011;55696;52.138;5.444;2022-09-09T17:19:10;4.63;;;1.87;;
68718;SDS011;55696;52.138;5.444;2022-09-09T17:21:37;7.55;;;2.60;;
68718;SDS011;55696;52.138;5.444;2022-09-09T17:24:25;10.45;;;2.58;;
68718;SDS011;55696;52.138;5.444;2022-09-09T17:26:55;8.02;;;2.22;;